Time;durP1;ratioP1;P1;durP2;ratioP2;P2;SDS_P1;SDS_P2;PMS_P1;PMS_P2;Temp;Humidity;BMP_temperature;BMP_pressure;BME280_temperature;BME280_humidity;BME280_pressure;Samples;Min_cycle;Max_cycle;Signal;HPM_P1;HPM_P2
2023/06/22 00:02:17;;;;;;;9.98;7.25;;;20.20;99.90;;;;;;4962339;28;20050;-37
2023/06/22 00:04:43;;;;;;;13.40;8.10;;;20.10;99.90;;;;;;4959191;28;20098;-37
2023/06/22 00:07:09;;;;;;;10.55;7.20;;;20.10;99.90;;;;;;4960869;28;20046;-37
2023/06/22 00:09:35;;;;;;;18.42;9.55;;;20.00;99.90;;;;;;4959041;28;20046;-37
2023/06/22 00:12:01;;;;;;;12.85;8.52;;;20.00;99.90;;;;;;4962470;28;20137;-37
2023/06/22 00:14:27;;;;;;;11.65;7.72;;;20.00;99.90;;;;;;4961916;28;20133;-38
2023/06/22 00:16:54;;;;;;;12.30;8.70;;;19.90;99.90;;;;;;4963792;28;20054;-38
2023/06/22 00:19:21;;;;;;;13.32;7.60;;;19.90;99.90;;;;;;4959283;28;20129;-38
2023/06/22 00:21:47;;;;;;;12.23;8.80;;;19.90;99.90;;;;;;4961389;28;20101;-38
2023/06/22 00:24:13;;;;;;;10.63;7.93;;;19.80;99.90;;;;;;4959438;28;20471;-36
2023/06/22 00:26:39;;;;;;;12.65;8.90;;;19.70;99.90;;;;;;4962339;28;20401;-36
2023/06/22 00:29:04;;;;;;;13.23;8.35;;;19.70;99.90;;;;;;4957198;28;20058;-36
2023/06/22 00:31:30;;;;;;;13.25;8.93;;;19.70;99.90;;;;;;4961709;28;20501;-36
2023/06/22 00:33:56;;;;;;;11.05;7.55;;;19.70;99.90;;;;;;4960077;28;21190;-43
2023/06/22 00:36:24;;;;;;;14.80;9.98;;;19.70;99.90;;;;;;4963205;28;20569;-37
2023/06/22 00:38:50;;;;;;;14.07;9.10;;;19.70;99.90;;;;;;4959569;28;20055;-37
2023/06/22 00:41:17;;;;;;;12.15;8.40;;;19.60;99.90;;;;;;4962341;28;20061;-37
2023/06/22 00:43:42;;;;;;;13.27;9.05;;;19.60;99.90;;;;;;4958869;28;20413;-37
2023/06/22 00:46:08;;;;;;;12.02;8.10;;;19.60;99.90;;;;;;4963938;28;20054;-37
2023/06/22 00:48:36;;;;;;;13.35;9.95;;;19.60;99.90;;;;;;4959289;28;20121;-37
2023/06/22 00:51:02;;;;;;;14.38;10.48;;;19.60;99.90;;;;;;4963392;28;20485;-36
2023/06/22 00:53:28;;;;;;;12.40;8.90;;;19.50;99.90;;;;;;4963032;28;20053;-37
2023/06/22 00:55:54;;;;;;;15.45;10.85;;;19.50;99.90;;;;;;4965027;28;20054;-37
2023/06/22 00:58:21;;;;;;;14.55;10.40;;;19.50;99.90;;;;;;4958376;28;21460;-38
2023/06/22 01:00:47;;;;;;;14.45;10.38;;;19.50;99.90;;;;;;4958110;28;20413;-36
2023/06/22 01:03:13;;;;;;;14.77;9.90;;;19.50;99.90;;;;;;4945170;28;20047;-38
2023/06/22 01:05:40;;;;;;;12.00;8.55;;;19.50;99.90;;;;;;4953012;28;20147;-37
2023/06/22 01:08:22;;;;;;;14.13;9.45;;;19.40;99.90;;;;;;4960993;28;20097;-36
2023/06/22 01:10:54;;;;;;;16.73;10.02;;;19.40;99.90;;;;;;4962587;28;20059;-37
2023/06/22 01:14:04;;;;;;;14.82;10.95;;;19.40;99.90;;;;;;4963687;28;20082;-38
2023/06/22 01:16:32;;;;;;;13.18;9.20;;;19.40;99.90;;;;;;4903576;29;20052;-37
2023/06/22 01:19:02;;;;;;;16.67;12.15;;;19.30;99.90;;;;;;4956361;28;20058;-37
2023/06/22 01:21:30;;;;;;;12.75;9.27;;;19.30;99.90;;;;;;4962362;28;20055;-37
2023/06/22 01:24:10;;;;;;;15.45;9.77;;;19.30;99.90;;;;;;4962888;28;20517;-36
2023/06/22 01:26:42;;;;;;;16.40;10.65;;;19.20;99.90;;;;;;4959899;28;20140;-37
2023/06/22 01:29:13;;;;;;;16.77;9.80;;;19.20;99.90;;;;;;4960387;28;20058;-37
2023/06/22 01:31:40;;;;;;;13.68;10.13;;;19.20;99.90;;;;;;4967034;28;20055;-37
2023/06/22 01:34:08;;;;;;;17.63;11.40;;;19.10;99.90;;;;;;4965672;28;20097;-36
2023/06/22 01:36:35;;;;;;;12.45;9.02;;;19.10;99.90;;;;;;4967230;28;20042;-38
2023/06/22 01:39:03;;;;;;;18.00;12.48;;;19.10;99.90;;;;;;4965086;28;20528;-38
2023/06/22 01:41:31;;;;;;;15.32;10.30;;;19.10;99.90;;;;;;4964483;28;20046;-37
2023/06/22 01:43:57;;;;;;;15.30;10.38;;;19.10;99.90;;;;;;4966177;28;20489;-37
2023/06/22 01:46:23;;;;;;;14.38;11.27;;;19.10;99.90;;;;;;4964940;28;20046;-37
2023/06/22 01:48:50;;;;;;;18.42;12.90;;;19.10;99.90;;;;;;4966934;28;20488;-37
2023/06/22 01:51:16;;;;;;;15.18;11.35;;;19.10;99.90;;;;;;4964900;28;20471;-36
2023/06/22 01:53:42;;;;;;;17.85;12.45;;;19.10;99.90;;;;;;4965831;28;20071;-36
2023/06/22 01:56:08;;;;;;;13.10;10.55;;;19.10;99.90;;;;;;4968525;28;20137;-38
2023/06/22 01:58:36;;;;;;;14.00;10.10;;;19.00;99.90;;;;;;4968474;28;20085;-38
2023/06/22 02:01:12;;;;;;;15.52;10.13;;;19.00;99.90;;;;;;4964347;28;20137;-37
2023/06/22 02:03:43;;;;;;;16.17;11.95;;;19.00;99.90;;;;;;4961801;28;20051;-38
2023/06/22 02:06:21;;;;;;;14.27;9.80;;;18.90;99.90;;;;;;4964899;28;20125;-36
2023/06/22 02:08:50;;;;;;;16.00;11.15;;;18.90;99.90;;;;;;4956717;28;20047;-37
2023/06/22 02:11:20;;;;;;;17.27;11.48;;;18.90;99.90;;;;;;4950632;28;20149;-37
2023/06/22 02:13:46;;;;;;;14.23;10.70;;;18.80;99.90;;;;;;4948777;28;20078;-37
2023/06/22 02:16:13;;;;;;;18.50;11.35;;;18.70;99.90;;;;;;4963524;28;20138;-37
2023/06/22 02:18:40;;;;;;;17.90;12.68;;;18.70;99.90;;;;;;4963451;28;20284;-37
2023/06/22 02:21:06;;;;;;;14.13;10.02;;;18.70;99.90;;;;;;4962026;28;20046;-36
2023/06/22 02:23:35;;;;;;;17.35;13.05;;;18.70;99.90;;;;;;4965351;28;20046;-36
2023/06/22 02:26:03;;;;;;;16.58;11.18;;;18.70;99.90;;;;;;4964889;28;20130;-36
2023/06/22 02:28:28;;;;;;;15.50;11.55;;;18.60;99.90;;;;;;4963555;28;20066;-37
2023/06/22 02:30:54;;;;;;;17.27;11.45;;;18.60;99.90;;;;;;4937750;28;20076;-37
2023/06/22 02:33:20;;;;;;;15.18;10.75;;;18.50;99.90;;;;;;4964823;28;20062;-36
2023/06/22 02:35:48;;;;;;;18.27;12.85;;;18.50;99.90;;;;;;4961093;28;20051;-38
2023/06/22 02:38:14;;;;;;;17.02;11.65;;;18.50;99.90;;;;;;4959711;28;20501;-38
2023/06/22 02:40:40;;;;;;;19.60;14.20;;;18.40;99.90;;;;;;4956277;28;20057;-38
2023/06/22 02:43:06;;;;;;;19.90;14.38;;;18.40;99.90;;;;;;4945697;28;20568;-38
2023/06/22 02:45:31;;;;;;;20.70;14.55;;;18.40;99.90;;;;;;4950129;28;20389;-37
2023/06/22 02:47:57;;;;;;;15.68;11.55;;;18.40;99.90;;;;;;4964517;28;20053;-36
2023/06/22 02:50:23;;;;;;;22.60;15.15;;;18.40;99.90;;;;;;4962223;28;20117;-37
2023/06/22 02:52:49;;;;;;;19.05;13.10;;;18.30;99.90;;;;;;4961571;28;20055;-37
2023/06/22 02:55:15;;;;;;;20.33;14.52;;;18.30;99.90;;;;;;4959012;28;20043;-36
2023/06/22 02:57:43;;;;;;;16.75;12.82;;;18.30;99.90;;;;;;4956202;28;20469;-37
2023/06/22 03:00:19;;;;;;;20.38;14.98;;;18.20;99.90;;;;;;4946529;28;20158;-37
2023/06/22 03:02:48;;;;;;;19.85;14.52;;;18.20;99.90;;;;;;4963198;28;20560;-38
2023/06/22 03:05:15;;;;;;;15.80;12.68;;;18.20;99.90;;;;;;4963691;28;20042;-37
2023/06/22 03:07:44;;;;;;;19.52;14.82;;;18.10;99.90;;;;;;4963961;28;20075;-38
2023/06/22 03:10:11;;;;;;;16.55;12.02;;;18.10;99.90;;;;;;4960285;28;20073;-37
2023/06/22 03:12:38;;;;;;;20.23;13.23;;;18.10;99.90;;;;;;4960850;28;20504;-37
2023/06/22 03:15:12;;;;;;;18.70;13.38;;;18.10;99.90;;;;;;4963791;28;20046;-38
2023/06/22 03:17:39;;;;;;;19.53;13.43;;;18.10;99.90;;;;;;4964130;28;20058;-38
2023/06/22 03:20:10;;;;;;;18.55;12.05;;;18.10;99.90;;;;;;4947908;28;20051;-36
2023/06/22 03:22:39;;;;;;;21.25;13.38;;;18.00;99.90;;;;;;4966849;28;20054;-37
2023/06/22 03:25:12;;;;;;;20.95;13.13;;;18.00;99.90;;;;;;4968000;28;20138;-38
2023/06/22 03:27:42;;;;;;;18.45;12.55;;;18.00;99.90;;;;;;4965409;28;20051;-37
2023/06/22 03:30:10;;;;;;;21.13;12.88;;;17.90;99.90;;;;;;4970758;28;20078;-37
2023/06/22 03:32:35;;;;;;;16.70;12.05;;;17.90;99.90;;;;;;4964286;28;20404;-38
2023/06/22 03:35:02;;;;;;;19.80;13.23;;;17.90;99.90;;;;;;4966235;28;20047;-36
2023/06/22 03:37:29;;;;;;;18.77;13.13;;;17.90;99.90;;;;;;4966561;28;20054;-37
2023/06/22 03:39:54;;;;;;;18.58;12.68;;;17.90;99.90;;;;;;4964314;28;20059;-38
2023/06/22 03:42:20;;;;;;;20.85;12.43;;;17.90;99.90;;;;;;4964976;28;20732;-38
2023/06/22 03:44:47;;;;;;;16.80;11.23;;;17.80;99.90;;;;;;4963538;28;20059;-37
2023/06/22 03:47:13;;;;;;;19.17;13.25;;;17.80;99.90;;;;;;4963633;28;20500;-37
2023/06/22 03:49:38;;;;;;;16.90;12.25;;;17.80;99.90;;;;;;4962895;28;20094;-37
2023/06/22 03:52:05;;;;;;;15.73;11.48;;;17.80;99.90;;;;;;4961375;28;20050;-37
2023/06/22 03:54:31;;;;;;;16.52;10.70;;;17.80;99.90;;;;;;4964054;28;20046;-37
2023/06/22 03:56:58;;;;;;;16.52;10.63;;;17.80;99.90;;;;;;4960473;28;20464;-36
2023/06/22 03:59:24;;;;;;;17.65;11.80;;;17.80;99.90;;;;;;4965031;28;20070;-36
2023/06/22 04:01:50;;;;;;;16.70;12.20;;;17.80;99.90;;;;;;4961069;28;20051;-37
2023/06/22 04:04:18;;;;;;;15.00;10.25;;;17.80;99.90;;;;;;4945994;28;20381;-37
2023/06/22 04:06:44;;;;;;;15.52;10.30;;;17.80;99.90;;;;;;4962537;28;20047;-36
2023/06/22 04:09:09;;;;;;;18.10;11.38;;;17.80;99.90;;;;;;4962743;28;20109;-37
2023/06/22 04:11:35;;;;;;;14.35;10.25;;;17.80;99.90;;;;;;4958933;28;20414;-38
2023/06/22 04:14:01;;;;;;;18.25;11.88;;;17.80;99.90;;;;;;4965428;28;20133;-35
2023/06/22 04:16:27;;;;;;;19.67;13.55;;;17.80;99.90;;;;;;4963164;28;20070;-36
2023/06/22 04:18:52;;;;;;;18.30;12.30;;;17.80;99.90;;;;;;4959518;28;20065;-36
2023/06/22 04:21:19;;;;;;;19.65;13.57;;;17.80;99.90;;;;;;4961289;28;20462;-37
2023/06/22 04:23:46;;;;;;;16.08;11.38;;;17.80;99.90;;;;;;4960085;28;20051;-36
2023/06/22 04:26:12;;;;;;;14.60;11.32;;;17.80;99.90;;;;;;4962619;28;20505;-37
2023/06/22 04:28:38;;;;;;;15.95;11.43;;;17.80;99.90;;;;;;4949176;28;20065;-35
2023/06/22 04:31:04;;;;;;;17.08;11.20;;;17.80;99.90;;;;;;4960683;28;20046;-37
2023/06/22 04:33:30;;;;;;;17.75;11.90;;;17.80;99.90;;;;;;4962877;28;20058;-38
2023/06/22 04:36:03;;;;;;;22.27;13.75;;;17.80;99.90;;;;;;4963526;28;20055;-36
2023/06/22 04:38:33;;;;;;;18.63;13.68;;;17.90;99.90;;;;;;4961697;28;20054;-35
2023/06/22 04:41:00;;;;;;;19.75;13.95;;;17.90;99.90;;;;;;4961461;28;20407;-36
2023/06/22 04:43:30;;;;;;;15.57;11.15;;;17.90;99.90;;;;;;4964612;28;20059;-36
2023/06/22 04:46:03;;;;;;;20.63;14.23;;;18.00;99.90;;;;;;4960214;28;20043;-36
2023/06/22 04:48:34;;;;;;;17.85;12.18;;;18.00;99.90;;;;;;4960808;28;20101;-35
2023/06/22 04:51:03;;;;;;;21.40;15.83;;;18.10;99.90;;;;;;4964978;28;21975;-33
2023/06/22 04:53:32;;;;;;;22.52;16.00;;;18.10;99.90;;;;;;4960981;28;20066;-36
2023/06/22 04:55:58;;;;;;;18.33;13.52;;;18.20;99.90;;;;;;4959379;28;20121;-36
2023/06/22 04:58:26;;;;;;;21.23;15.23;;;18.20;99.90;;;;;;4963203;28;20089;-36
2023/06/22 05:00:52;;;;;;;20.80;15.23;;;18.30;99.90;;;;;;4963375;28;20054;-37
2023/06/22 05:03:18;;;;;;;20.70;14.52;;;18.30;99.90;;;;;;4961036;28;20509;-36
2023/06/22 05:05:44;;;;;;;20.67;15.45;;;18.40;99.90;;;;;;4963433;28;20397;-37
2023/06/22 05:08:12;;;;;;;20.65;14.82;;;18.50;99.90;;;;;;4966950;28;20058;-35
2023/06/22 05:10:37;;;;;;;24.60;16.15;;;18.60;99.90;;;;;;4964906;28;20172;-36
2023/06/22 05:13:03;;;;;;;20.10;13.13;;;18.60;99.90;;;;;;4969296;28;20043;-36
2023/06/22 05:15:30;;;;;;;23.40;15.55;;;18.70;99.90;;;;;;4967154;28;20523;-37
2023/06/22 05:17:56;;;;;;;19.52;13.95;;;18.70;99.90;;;;;;4969399;28;20419;-36
2023/06/22 05:20:22;;;;;;;16.20;11.40;;;18.80;99.90;;;;;;4963282;28;20054;-37
2023/06/22 05:22:48;;;;;;;20.30;14.13;;;18.90;99.90;;;;;;4956058;28;20055;-35
2023/06/22 05:25:13;;;;;;;20.42;13.63;;;19.00;99.90;;;;;;4954612;28;20521;-37
2023/06/22 05:27:39;;;;;;;21.20;14.50;;;19.00;99.90;;;;;;4963660;28;20496;-36
2023/06/22 05:30:07;;;;;;;19.70;12.40;;;19.10;99.90;;;;;;4963112;28;20051;-36
2023/06/22 05:32:33;;;;;;;20.13;13.82;;;19.20;99.90;;;;;;4964582;28;20113;-36
2023/06/22 05:34:59;;;;;;;19.25;13.80;;;19.20;99.90;;;;;;4950414;28;20663;-41
2023/06/22 05:37:25;;;;;;;20.17;14.93;;;19.30;99.90;;;;;;4965393;28;20158;-37
2023/06/22 05:39:51;;;;;;;16.95;12.15;;;19.30;99.90;;;;;;4962465;28;20057;-36
2023/06/22 05:42:17;;;;;;;18.67;13.43;;;19.40;99.90;;;;;;4963570;28;20100;-36
2023/06/22 05:44:43;;;;;;;19.00;13.77;;;19.40;99.90;;;;;;4962418;28;20082;-35
2023/06/22 05:47:08;;;;;;;21.25;13.57;;;19.50;99.90;;;;;;4958733;28;20050;-36
2023/06/22 05:49:34;;;;;;;19.20;13.23;;;19.50;99.90;;;;;;4959720;28;20051;-37
2023/06/22 05:52:00;;;;;;;17.20;12.05;;;19.50;99.90;;;;;;4964879;28;20058;-35
2023/06/22 05:54:28;;;;;;;17.13;12.38;;;19.50;99.90;;;;;;4965100;28;20059;-37
2023/06/22 05:56:53;;;;;;;17.30;12.25;;;19.50;99.90;;;;;;4964904;28;20166;-35
2023/06/22 05:59:19;;;;;;;15.65;11.77;;;19.50;99.90;;;;;;4956942;28;20107;-36
2023/06/22 06:01:49;;;;;;;16.42;10.40;;;19.60;99.90;;;;;;4962889;28;20066;-36
2023/06/22 06:04:16;;;;;;;16.90;10.52;;;19.60;99.90;;;;;;4954674;28;20058;-37
2023/06/22 06:06:42;;;;;;;16.77;10.23;;;19.60;99.90;;;;;;4953531;28;20153;-36
2023/06/22 06:09:07;;;;;;;13.80;10.07;;;19.80;99.90;;;;;;4954596;28;20058;-36
2023/06/22 06:11:33;;;;;;;13.88;9.48;;;19.80;99.90;;;;;;4958318;28;20221;-36
2023/06/22 06:13:59;;;;;;;14.13;10.32;;;20.00;99.90;;;;;;4952695;28;20129;-35
2023/06/22 06:16:25;;;;;;;12.98;8.73;;;20.10;99.90;;;;;;4958586;28;20580;-35
2023/06/22 06:18:50;;;;;;;16.73;10.57;;;20.20;99.90;;;;;;4952147;28;20058;-36
2023/06/22 06:21:16;;;;;;;15.57;10.60;;;20.30;99.90;;;;;;4959413;28;20141;-37
2023/06/22 06:23:42;;;;;;;13.60;9.57;;;20.40;99.90;;;;;;4959828;28;20456;-37
2023/06/22 06:26:08;;;;;;;13.65;9.43;;;20.50;99.90;;;;;;4962464;28;20066;-36
2023/06/22 06:28:35;;;;;;;13.57;9.30;;;20.60;99.90;;;;;;4961391;28;20133;-36
2023/06/22 06:31:01;;;;;;;13.10;9.85;;;20.70;99.90;;;;;;4961581;28;20062;-35
2023/06/22 06:33:26;;;;;;;13.18;8.77;;;20.80;99.90;;;;;;4958159;28;20058;-35
2023/06/22 06:35:52;;;;;;;11.10;7.85;;;20.90;99.90;;;;;;4959020;28;20070;-36
2023/06/22 06:38:18;;;;;;;9.98;7.57;;;21.10;99.90;;;;;;4960092;28;20564;-36
2023/06/22 06:40:45;;;;;;;12.38;8.57;;;21.30;99.90;;;;;;4960466;28;20062;-35
2023/06/22 06:43:10;;;;;;;11.93;7.72;;;21.60;99.90;;;;;;4954935;28;20161;-36
2023/06/22 06:45:36;;;;;;;13.93;9.43;;;21.80;99.90;;;;;;4959350;28;20367;-35
2023/06/22 06:48:02;;;;;;;14.35;8.50;;;22.00;99.90;;;;;;4960907;28;20055;-34
2023/06/22 06:50:28;;;;;;;11.85;8.15;;;22.10;99.90;;;;;;4962803;28;20051;-36
2023/06/22 06:52:54;;;;;;;10.30;8.07;;;22.20;99.90;;;;;;4954971;28;20393;-35
2023/06/22 06:55:20;;;;;;;15.27;9.00;;;22.30;99.90;;;;;;4956860;28;20054;-34
2023/06/22 06:57:48;;;;;;;11.20;7.85;;;22.40;99.90;;;;;;4956442;28;20065;-35
2023/06/22 07:00:15;;;;;;;11.77;7.72;;;22.50;99.90;;;;;;4954308;28;20042;-35
2023/06/22 07:02:42;;;;;;;11.05;8.13;;;22.60;99.90;;;;;;4958703;28;20089;-34
2023/06/22 07:05:09;;;;;;;14.65;8.07;;;22.60;99.90;;;;;;4963879;28;20179;-35
2023/06/22 07:07:35;;;;;;;11.90;7.50;;;22.60;99.90;;;;;;4964693;28;20051;-35
2023/06/22 07:10:01;;;;;;;9.73;7.55;;;22.60;99.90;;;;;;4965759;28;20050;-34
2023/06/22 07:12:26;;;;;;;9.65;7.15;;;22.70;99.90;;;;;;4967742;28;20497;-34
2023/06/22 07:14:53;;;;;;;10.80;8.07;;;22.80;99.90;;;;;;4958983;28;20070;-35
2023/06/22 07:17:18;;;;;;;11.40;8.27;;;22.90;99.90;;;;;;4955568;28;20054;-35
2023/06/22 07:19:44;;;;;;;9.20;6.30;;;22.90;99.90;;;;;;4959413;28;21317;-35
2023/06/22 07:22:10;;;;;;;9.82;5.97;;;23.00;99.90;;;;;;4961164;28;20081;-34
2023/06/22 07:24:35;;;;;;;8.32;5.28;;;23.10;99.90;;;;;;4967350;28;20051;-34
2023/06/22 07:27:02;;;;;;;10.07;6.90;;;23.10;99.90;;;;;;4964856;28;20054;-35
2023/06/22 07:29:28;;;;;;;9.82;5.55;;;23.20;99.90;;;;;;4963201;28;20138;-35
2023/06/22 07:31:56;;;;;;;11.60;6.63;;;23.20;99.90;;;;;;4964553;28;20050;-35
2023/06/22 07:34:22;;;;;;;8.20;5.90;;;23.30;99.90;;;;;;4966490;28;20057;-36
2023/06/22 07:36:47;;;;;;;10.02;6.55;;;23.30;99.90;;;;;;4963266;28;20062;-35
2023/06/22 07:39:14;;;;;;;5.40;3.55;;;23.40;99.90;;;;;;4950567;28;20564;-35
2023/06/22 07:41:43;;;;;;;6.88;4.78;;;23.40;99.90;;;;;;4968364;28;20501;-35
2023/06/22 07:44:08;;;;;;;7.95;6.07;;;23.50;99.90;;;;;;4962807;28;20145;-35
2023/06/22 07:46:34;;;;;;;11.80;7.10;;;23.50;99.90;;;;;;4965290;28;20460;-35
2023/06/22 07:49:01;;;;;;;8.77;6.32;;;23.60;99.90;;;;;;4965546;28;20134;-35
2023/06/22 07:51:27;;;;;;;10.05;6.35;;;23.60;99.90;;;;;;4963163;28;20051;-35
2023/06/22 07:53:52;;;;;;;9.30;6.00;;;23.60;99.90;;;;;;4962121;28;20046;-34
2023/06/22 07:56:21;;;;;;;8.48;5.72;;;23.70;99.90;;;;;;4951533;28;20058;-35
2023/06/22 07:58:47;;;;;;;10.32;6.90;;;23.70;99.90;;;;;;4964517;28;20058;-35
2023/06/22 08:01:16;;;;;;;10.38;7.47;;;23.80;99.90;;;;;;4964525;28;20055;-35
2023/06/22 08:03:42;;;;;;;9.60;7.10;;;23.90;99.90;;;;;;4961211;28;20071;-35
2023/06/22 08:06:09;;;;;;;9.55;6.57;;;24.00;99.90;;;;;;4959592;28;20068;-35
2023/06/22 08:08:36;;;;;;;10.02;7.00;;;24.00;99.90;;;;;;4965291;28;20185;-42
2023/06/22 08:11:01;;;;;;;8.60;6.53;;;24.10;99.90;;;;;;4963399;28;20055;-34
2023/06/22 08:13:27;;;;;;;5.15;3.33;;;24.10;99.90;;;;;;4959247;28;20054;-35
2023/06/22 08:15:53;;;;;;;9.35;5.30;;;24.20;99.90;;;;;;4953616;28;20077;-34
2023/06/22 08:18:18;;;;;;;9.95;5.60;;;24.30;99.90;;;;;;4965105;28;20058;-35
2023/06/22 08:20:44;;;;;;;10.73;6.32;;;24.40;99.90;;;;;;4963325;28;20501;-35
2023/06/22 08:23:10;;;;;;;9.50;6.57;;;24.40;99.90;;;;;;4964674;28;20039;-35
2023/06/22 08:25:35;;;;;;;7.22;4.82;;;24.50;99.90;;;;;;4961128;28;20117;-35
2023/06/22 08:28:02;;;;;;;9.77;5.88;;;24.60;99.90;;;;;;4961495;28;20518;-35
2023/06/22 08:30:28;;;;;;;9.25;5.53;;;24.60;99.90;;;;;;4962913;28;20492;-35
2023/06/22 08:32:56;;;;;;;7.00;5.13;;;24.80;99.90;;;;;;4945377;28;20057;-35
2023/06/22 08:35:23;;;;;;;7.45;4.57;;;24.90;99.90;;;;;;4959436;28;20722;-35
2023/06/22 08:37:54;;;;;;;8.15;5.82;;;24.90;99.90;;;;;;4960104;28;20473;-35
2023/06/22 08:40:21;;;;;;;4.70;2.80;;;24.90;99.90;;;;;;4961370;28;20137;-35
2023/06/22 08:42:47;;;;;;;7.65;4.75;;;24.90;99.90;;;;;;4964967;28;20070;-35
2023/06/22 08:45:14;;;;;;;6.65;4.28;;;25.00;99.90;;;;;;4963593;28;20069;-35
2023/06/22 08:47:43;;;;;;;7.90;4.40;;;25.10;99.90;;;;;;4965590;28;20133;-35
2023/06/22 08:50:13;;;;;;;5.55;3.67;;;25.20;99.90;;;;;;4952298;28;20083;-35
2023/06/22 08:52:41;;;;;;;5.95;3.65;;;25.30;99.90;;;;;;4960639;28;20080;-35
2023/06/22 08:55:07;;;;;;;5.90;3.03;;;25.30;99.90;;;;;;4949141;28;20058;-36
2023/06/22 08:57:33;;;;;;;7.22;4.40;;;25.40;99.90;;;;;;4960590;28;20110;-36
2023/06/22 08:59:59;;;;;;;8.43;5.32;;;25.60;99.90;;;;;;4964815;28;20055;-36
2023/06/22 09:02:26;;;;;;;8.20;5.20;;;25.60;99.90;;;;;;4965349;28;20059;-36
2023/06/22 09:04:55;;;;;;;7.18;5.28;;;25.60;99.90;;;;;;4963170;28;20057;-36
2023/06/22 09:07:23;;;;;;;6.97;4.78;;;25.70;99.90;;;;;;4963328;28;20415;-36
2023/06/22 09:09:49;;;;;;;7.57;4.35;;;25.80;99.90;;;;;;4961265;28;20589;-36
2023/06/22 09:12:15;;;;;;;7.88;5.45;;;25.80;99.90;;;;;;4964170;28;20493;-37
2023/06/22 09:14:40;;;;;;;6.35;4.50;;;26.00;99.90;;;;;;4963979;28;20051;-36
2023/06/22 09:17:06;;;;;;;6.53;3.67;;;26.00;99.90;;;;;;4962684;28;20416;-36
2023/06/22 09:19:32;;;;;;;5.50;3.05;;;26.10;99.90;;;;;;4961756;28;20073;-36
2023/06/22 09:21:57;;;;;;;5.55;3.53;;;26.20;99.90;;;;;;4957662;28;20059;-36
2023/06/22 09:24:23;;;;;;;5.57;4.28;;;26.30;99.90;;;;;;4959694;28;20513;-36
2023/06/22 09:26:48;;;;;;;6.50;4.05;;;26.30;99.90;;;;;;4958306;28;20476;-36
2023/06/22 09:29:14;;;;;;;7.35;5.18;;;26.40;99.90;;;;;;4963075;28;20050;-35
2023/06/22 09:31:40;;;;;;;8.05;4.25;;;26.40;99.90;;;;;;4967391;28;20058;-35
2023/06/22 09:34:06;;;;;;;6.13;4.53;;;26.40;99.90;;;;;;4943932;28;20051;-36
2023/06/22 09:36:32;;;;;;;6.28;4.80;;;26.40;99.90;;;;;;4960432;28;20039;-36
2023/06/22 09:38:58;;;;;;;6.40;4.72;;;26.50;99.90;;;;;;4963679;28;20069;-36
2023/06/22 09:41:24;;;;;;;8.23;5.00;;;26.50;99.90;;;;;;4962386;28;20051;-36
2023/06/22 09:43:51;;;;;;;6.05;4.35;;;26.50;99.90;;;;;;4960270;28;20109;-36
2023/06/22 09:46:17;;;;;;;6.55;4.32;;;26.50;99.90;;;;;;4962948;28;20061;-37
2023/06/22 09:48:43;;;;;;;7.25;4.10;;;26.50;99.90;;;;;;4963578;28;20050;-38
2023/06/22 09:51:09;;;;;;;5.93;4.00;;;26.50;99.90;;;;;;4964733;28;20058;-37
2023/06/22 09:53:34;;;;;;;5.20;3.75;;;26.60;99.90;;;;;;4970824;28;20069;-35
2023/06/22 09:56:01;;;;;;;4.80;3.53;;;26.70;99.90;;;;;;4965510;28;20057;-36
2023/06/22 09:58:27;;;;;;;5.28;3.40;;;26.80;99.90;;;;;;4973400;28;20538;-36
2023/06/22 10:00:54;;;;;;;6.60;3.90;;;26.90;99.90;;;;;;4969717;28;20047;-37
2023/06/22 10:03:20;;;;;;;7.43;4.25;;;27.10;99.90;;;;;;4970177;28;20800;-36
2023/06/22 10:05:46;;;;;;;6.25;3.50;;;27.30;99.90;;;;;;4971787;28;20057;-37
2023/06/22 10:08:11;;;;;;;5.80;4.13;;;27.40;99.90;;;;;;4955516;28;20527;-37
2023/06/22 10:10:37;;;;;;;6.72;3.80;;;27.50;99.90;;;;;;4965701;28;20082;-36
2023/06/22 10:13:10;;;;;;;6.65;4.25;;;27.50;99.90;;;;;;4964853;28;20035;-36
2023/06/22 10:15:37;;;;;;;5.25;3.53;;;27.60;99.90;;;;;;4954986;28;20418;-36
2023/06/22 10:18:03;;;;;;;5.68;3.65;;;27.60;99.90;;;;;;4960193;28;20141;-37
2023/06/22 10:20:29;;;;;;;4.97;3.65;;;27.70;99.90;;;;;;4964529;28;20552;-36
2023/06/22 10:22:54;;;;;;;5.30;3.55;;;27.70;99.90;;;;;;4967090;28;20054;-36
2023/06/22 10:25:21;;;;;;;6.35;3.03;;;27.70;99.90;;;;;;4967406;28;20051;-36
2023/06/22 10:27:47;;;;;;;5.53;2.60;;;27.90;99.90;;;;;;4969618;28;20078;-36
2023/06/22 10:30:13;;;;;;;4.80;2.22;;;28.00;99.90;;;;;;4973583;28;20063;-37
2023/06/22 10:32:39;;;;;;;6.70;3.30;;;28.10;99.90;;;;;;4958948;28;20043;-37
2023/06/22 10:35:06;;;;;;;6.18;3.00;;;28.20;99.90;;;;;;4970231;28;20659;-36
2023/06/22 10:37:32;;;;;;;5.00;3.05;;;28.30;99.90;;;;;;4969320;28;20113;-36
2023/06/22 10:39:57;;;;;;;3.70;3.03;;;28.20;99.90;;;;;;4969942;28;20393;-36
2023/06/22 10:42:23;;;;;;;6.22;3.05;;;28.10;99.90;;;;;;4969468;28;20066;-36
2023/06/22 10:44:49;;;;;;;4.93;2.92;;;28.00;99.90;;;;;;4971878;28;20105;-36
2023/06/22 10:47:15;;;;;;;4.45;3.00;;;27.80;99.90;;;;;;4970260;28;20911;-36
2023/06/22 10:49:41;;;;;;;5.15;2.67;;;27.80;99.90;;;;;;4968669;28;20062;-36
2023/06/22 10:52:08;;;;;;;4.32;2.38;;;27.70;99.90;;;;;;4966930;28;20086;-36
2023/06/22 10:54:35;;;;;;;3.40;2.30;;;27.70;99.90;;;;;;4966147;28;20081;-36
2023/06/22 10:57:01;;;;;;;4.05;2.38;;;27.70;99.90;;;;;;4970845;28;20153;-37
2023/06/22 10:59:28;;;;;;;4.47;2.95;;;27.70;99.90;;;;;;4966406;28;20051;-37
2023/06/22 11:01:55;;;;;;;4.97;2.80;;;27.60;99.90;;;;;;4970477;28;20046;-36
2023/06/22 11:04:21;;;;;;;3.63;2.67;;;27.60;99.90;;;;;;4968643;28;20500;-36
2023/06/22 11:06:47;;;;;;;4.25;2.20;;;27.60;99.90;;;;;;4963745;28;20089;-36
2023/06/22 11:09:18;;;;;;;4.10;2.13;;;27.60;99.90;;;;;;4966644;28;20496;-36
2023/06/22 11:11:44;;;;;;;6.32;2.90;;;27.70;99.90;;;;;;4966362;28;20402;-35
2023/06/22 11:14:10;;;;;;;3.70;2.20;;;27.60;99.90;;;;;;4966783;28;20070;-36
2023/06/22 11:16:36;;;;;;;4.40;2.75;;;27.60;99.90;;;;;;4965156;28;20105;-36
2023/06/22 11:19:03;;;;;;;5.95;2.58;;;27.60;99.90;;;;;;4962820;28;20054;-36
2023/06/22 11:21:28;;;;;;;6.32;3.25;;;27.60;99.90;;;;;;4960155;28;20077;-36
2023/06/22 11:23:54;;;;;;;4.35;2.70;;;27.60;99.90;;;;;;4966565;28;20082;-36
2023/06/22 11:26:21;;;;;;;3.95;2.63;;;27.60;99.90;;;;;;4967780;28;20149;-36
2023/06/22 11:28:46;;;;;;;6.30;2.47;;;27.60;99.90;;;;;;4969161;28;20054;-36
2023/06/22 11:31:12;;;;;;;4.22;2.55;;;27.60;99.90;;;;;;4968095;28;20046;-36
2023/06/22 11:33:38;;;;;;;4.15;2.72;;;27.60;99.90;;;;;;4968749;28;20129;-36
2023/06/22 11:36:04;;;;;;;5.10;2.78;;;27.60;99.90;;;;;;4967030;28;20043;-36
2023/06/22 11:38:30;;;;;;;4.50;2.35;;;27.60;99.90;;;;;;4957213;28;20106;-36
2023/06/22 11:40:58;;;;;;;5.63;2.70;;;27.60;99.90;;;;;;4945084;28;20469;-35
2023/06/22 11:43:23;;;;;;;3.78;2.30;;;27.60;99.90;;;;;;4961314;28;20067;-36
2023/06/22 11:45:49;;;;;;;4.18;2.97;;;27.60;99.90;;;;;;4966632;28;20145;-37
2023/06/22 11:48:15;;;;;;;5.03;2.65;;;27.60;99.90;;;;;;4971316;28;20057;-36
2023/06/22 11:50:40;;;;;;;4.93;3.08;;;27.60;99.90;;;;;;4968218;28;20054;-37
2023/06/22 11:53:06;;;;;;;4.13;2.65;;;27.50;99.90;;;;;;4966148;28;20082;-36
2023/06/22 11:55:32;;;;;;;4.13;2.80;;;27.50;99.90;;;;;;4972673;28;20044;-36
2023/06/22 11:58:03;;;;;;;5.28;2.42;;;27.50;99.90;;;;;;4967586;28;20058;-35
2023/06/22 12:00:29;;;;;;;4.32;2.60;;;27.60;99.90;;;;;;4965771;28;20129;-36
2023/06/22 12:02:56;;;;;;;4.32;2.60;;;27.60;99.90;;;;;;4965249;28;20093;-36
2023/06/22 12:05:23;;;;;;;4.25;2.47;;;27.50;99.90;;;;;;4968107;28;20124;-37
2023/06/22 12:07:49;;;;;;;5.30;3.13;;;27.40;99.90;;;;;;4965353;28;20273;-37
2023/06/22 12:10:15;;;;;;;3.33;2.17;;;27.40;99.90;;;;;;4961240;28;20051;-37
2023/06/22 12:12:41;;;;;;;5.03;2.80;;;27.40;99.90;;;;;;4965916;28;20650;-37
2023/06/22 12:15:08;;;;;;;3.38;2.42;;;27.40;99.90;;;;;;4967905;28;20042;-35
2023/06/22 12:17:34;;;;;;;5.10;2.83;;;27.30;99.90;;;;;;4966574;28;20093;-37
2023/06/22 12:20:00;;;;;;;5.68;3.15;;;27.40;99.90;;;;;;4961448;28;20053;-35
2023/06/22 12:22:26;;;;;;;5.95;3.05;;;27.30;99.90;;;;;;4972616;28;20165;-37
2023/06/22 12:24:51;;;;;;;4.07;3.20;;;27.20;99.90;;;;;;4967516;28;20208;-36
2023/06/22 12:27:18;;;;;;;4.63;2.97;;;27.10;99.90;;;;;;4964965;28;20511;-36
2023/06/22 12:29:45;;;;;;;5.35;3.47;;;27.10;99.90;;;;;;4948684;28;20408;-36
2023/06/22 12:32:12;;;;;;;4.53;2.90;;;27.00;99.90;;;;;;4964557;28;20563;-37
2023/06/22 12:34:38;;;;;;;5.30;2.47;;;27.00;99.90;;;;;;4967059;28;20085;-37
2023/06/22 12:37:05;;;;;;;7.72;3.50;;;27.00;99.90;;;;;;4960222;28;20082;-36